createdAt,value
2023-02-27T00:08:33.135Z,-0.21
2023-02-27T00:18:36.377Z,-0.17
2023-02-27T00:28:39.612Z,-0.31
2023-02-27T00:38:42.861Z,-0.34
2023-02-27T00:48:46.050Z,-0.23
2023-02-27T00:58:49.338Z,-0.25
2023-02-27T01:08:53.607Z,-0.28
2023-02-27T01:18:56.847Z,-0.18
2023-02-27T01:28:59.980Z,-0.08
2023-02-27T01:39:03.488Z,-0.03
2023-02-27T01:49:33.694Z,-0.09
2023-02-27T01:59:39.638Z,-0.28
2023-02-27T02:09:50.873Z,-0.46
2023-02-27T02:20:26.131Z,-0.55
2023-02-27T02:31:10.904Z,-0.62
2023-02-27T02:41:46.209Z,-0.73
2023-02-27T02:51:59.133Z,-0.69
2023-02-27T03:02:27.365Z,-0.64
2023-02-27T03:12:33.979Z,-0.60
2023-02-27T03:22:44.438Z,-0.56
2023-02-27T03:33:07.021Z,-0.64
2023-02-27T03:43:26.001Z,-0.73
2023-02-27T03:53:41.004Z,-0.70
2023-02-27T04:03:52.213Z,-0.76
2023-02-27T04:14:33.533Z,-0.86
2023-02-27T04:24:36.585Z,-0.95
2023-02-27T04:34:44.058Z,-1.11
2023-02-27T04:44:50.329Z,-1.18
2023-02-27T04:55:11.675Z,-1.25
2023-02-27T05:05:19.754Z,-1.29
2023-02-27T05:15:32.847Z,-1.32
2023-02-27T05:25:47.486Z,-1.36
2023-02-27T05:36:10.598Z,-1.32
2023-02-27T05:46:21.727Z,-1.31
2023-02-27T05:56:28.652Z,-1.31
2023-02-27T06:06:32.129Z,-1.23
2023-02-27T06:16:38.472Z,-1.13
2023-02-27T06:26:41.570Z,-1.00
2023-02-27T06:36:44.924Z,-0.92
2023-02-27T06:46:48.222Z,-0.74
2023-02-27T06:56:52.106Z,-0.58
2023-02-27T07:07:32.955Z,-0.52
2023-02-27T07:17:19.954Z,-0.51
2023-02-27T07:27:23.210Z,-0.40
2023-02-27T07:37:28.151Z,-0.25
2023-02-27T07:47:31.860Z,-0.09
2023-02-27T07:57:35.207Z,-0.01
2023-02-27T08:07:38.306Z,0.08
2023-02-27T08:17:41.590Z,0.32
2023-02-27T08:27:45.949Z,0.81
2023-02-27T08:37:49.907Z,0.86
2023-02-27T08:47:54.018Z,0.63
2023-02-27T08:57:57.153Z,0.59
2023-02-27T09:08:00.274Z,0.56
2023-02-27T09:18:06.686Z,0.63
2023-02-27T09:28:09.805Z,1.03
2023-02-27T09:38:13.835Z,1.51
2023-02-27T09:49:00.441Z,1.42
2023-02-27T09:59:43.204Z,1.22
2023-02-27T10:10:30.701Z,1.31
2023-02-27T10:20:37.475Z,1.89
2023-02-27T10:30:41.827Z,2.42
2023-02-27T10:40:46.538Z,2.22
2023-02-27T10:50:53.708Z,2.06
2023-02-27T11:00:59.455Z,2.06
2023-02-27T11:11:06.280Z,2.37
2023-02-27T11:21:28.175Z,2.51
2023-02-27T11:31:33.891Z,2.50
2023-02-27T11:41:38.025Z,2.61
2023-02-27T11:51:51.526Z,2.44
2023-02-27T12:02:30.260Z,2.24
2023-02-27T12:12:39.979Z,2.15
2023-02-27T12:22:48.852Z,2.26
2023-02-27T12:33:18.073Z,2.20
2023-02-27T12:43:24.206Z,2.11
2023-02-27T12:54:09.561Z,2.07
2023-02-27T13:04:26.455Z,2.19
2023-02-27T13:14:40.865Z,1.93
2023-02-27T13:24:50.030Z,1.63
2023-02-27T13:34:57.730Z,1.28
2023-02-27T13:45:22.623Z,1.04
2023-02-27T13:55:31.148Z,0.72
2023-02-27T14:05:44.338Z,0.39
2023-02-27T14:15:51.842Z,0.36
2023-02-27T14:26:18.366Z,0.39
2023-02-27T14:36:28.020Z,0.30
2023-02-27T14:46:41.312Z,0.15
2023-02-27T14:56:58.035Z,0.16
2023-02-27T15:07:01.372Z,0.24
2023-02-27T15:17:16.702Z,0.25
2023-02-27T15:27:24.810Z,0.22
2023-02-27T15:37:33.631Z,0.22
2023-02-27T15:47:37.772Z,0.22
2023-02-27T15:57:52.909Z,0.11
2023-02-27T16:08:07.051Z,0.00
2023-02-27T16:18:10.563Z,-0.08
2023-02-27T16:28:15.037Z,-0.12
2023-02-27T16:38:18.271Z,-0.14
2023-02-27T16:48:22.468Z,-0.16
2023-02-27T16:58:26.052Z,-0.19
2023-02-27T17:08:31.294Z,-0.29
2023-02-27T17:18:34.644Z,-0.35
2023-02-27T17:28:38.989Z,-0.42
2023-02-27T17:38:42.009Z,-0.42
2023-02-27T17:48:45.105Z,-0.40
2023-02-27T17:58:48.328Z,-0.36
2023-02-27T18:08:51.482Z,-0.37
2023-02-27T18:18:55.549Z,-0.41
2023-02-27T18:29:02.148Z,-0.42
2023-02-27T18:39:06.187Z,-0.45
2023-02-27T18:49:09.655Z,-0.55
2023-02-27T18:59:12.904Z,-0.56
2023-02-27T19:09:16.365Z,-0.57
2023-02-27T19:19:19.848Z,-0.60
2023-02-27T19:29:22.973Z,-0.61
2023-02-27T19:39:26.264Z,-0.65
2023-02-27T19:49:29.781Z,-0.70
2023-02-27T19:59:32.959Z,-0.72
2023-02-27T20:09:37.010Z,-0.71
2023-02-27T20:19:40.199Z,-0.73
2023-02-27T20:29:43.313Z,-0.72
2023-02-27T20:39:47.628Z,-0.69
2023-02-27T20:49:50.913Z,-0.71
2023-02-27T20:59:54.012Z,-0.68
2023-02-27T21:09:57.296Z,-0.64
2023-02-27T21:20:06.563Z,-0.66
2023-02-27T21:30:11.112Z,-0.67
2023-02-27T21:40:15.688Z,-0.63
2023-02-27T21:50:21.947Z,-0.55
2023-02-27T22:00:27.638Z,-0.54
2023-02-27T22:10:42.983Z,-0.54
2023-02-27T22:20:46.926Z,-0.58
2023-02-27T22:30:49.973Z,-0.63
2023-02-27T22:40:53.146Z,-0.57
2023-02-27T22:51:03.260Z,-0.52
2023-02-27T23:01:13.619Z,-0.58
2023-02-27T23:11:18.435Z,-0.70
2023-02-27T23:21:26.403Z,-0.75
2023-02-27T23:31:31.094Z,-0.78
2023-02-27T23:41:36.117Z,-0.85
2023-02-27T23:51:39.293Z,-0.92
